Hovedside
METAR-TAF:

METAR-TAF

Lufthavner :

Pohnpei, Mikronesia

breddegrad: 06-59N, lengdegrad: 158-12E, høyde over havet: 2 m

Gjeldene værobservasjon

Denne rapporten ble laget for 52 minutter siden, klokken 21:58 UTC
Vind 12 kt fra Øst-nordøst
Temperatur 31°C
Luftfuktighet 75%
Trykk 1010 hPa
Sikt: 24.1 km
Spredte skyer i en høyde av 1800 ft
Brutte skyer i en høyde av 13000 ft
Overskyet i en høyde av 30000 ft

METAR: PTPN 252158Z 06012KT 15SM SCT018 BKN130 OVC300 31/26 A2982

Tid: 09:50 (22:50 UTC)

Varsel

Denne rapporten ble laget for 27 minutter siden, klokken 22:23 UTC
Varsel gyldig fra 25. klokken 22 UTC til 26. klokken 18 UTC
Vind 11 kt fra Øst-nordøst
Sikt: 10 km
Spredte skyer i en høyde av 1800 ft
Brutte skyer i en høyde av 13000 ft
byger på avstand,

TAF: PTPN 252223Z 2522/2618 06011KT P6SM VCSH SCT018 BKN130

Værobservasjoner og værvarsel for over 4000 flyplasser (METAR- og TAF-rapporter).

Tilgjengelige stasjoner er representert av de røde og gule prikkene på kartet.

Hold musepekeren over prikken for å se navnet på stasjonen.

Klikk så for å se værobservasjoner og -varsler.

For å forandre kartet kan du klikke på den grønne knappen med svart kryss for å zoome inn, på den grønne knappen med strek for å zoome ut, eller på de grønne pilene for å se tilstøtende kart.


METAR-TAF: